PWSweather.com
Personal Weather Stations
Station Observations
KJ4AJP
Beautiful Downtown Gardner, Martin, TN 38237

Beautiful Downtown GardnerMartin, TN 38237

Lat: 36.358, Lon: -88.8994

Elevation: 384.3

Station Type: TP1080WC

http://weather.mambm.com/

High Low Average
Temperature 25.3°F-3.7°C 0.9°F-17.3°C 11.8°F-11.2°C
Dew Point 13.1°F-10.5°C -2.5°F-19.2°C 5.2°F-14.9°C
Winds 4.5 mph 7.2 kmh Calm Calm 1.0 mph S1.6 kmh S
Wind Gusts 8.3 mph13.4 kmh -- 4.0 mph6.4 kmh
Humidity 87% 57% 75%
Pressure 30.76 in1041.7 mb 30.37 in1028.4 mb -
Precipitation 0.00 in0.0 mm - -
Hour Temp Dew Point Humidity Winds Wind Gusts Pressure Precip Precip Rate Daily Precip Total
12:00 AM 7.5°F-13.6°C 0.2°F-17.7°C 71% 3.1 mph NNE5.0 kmh NNE 6.9 mph11.1 kmh 30.74 in1041.0 mb 0.00 in0.0 mm 0.00 in0.0 mm 0.00 in0.0 mm
12:15 AM 7.2°F-13.8°C -0.2°F-17.9°C 71% 2.2 mph N3.5 kmh N 7.6 mph12.2 kmh 30.74 in1041.0 mb 0.00 in0.0 mm 0.00 in0.0 mm 0.00 in0.0 mm
12:30 AM 7.0°F-13.9°C -0.3°F-17.9°C 71% 0.7 mph N1.1 kmh N 6.0 mph9.7 kmh 30.73 in1040.6 mb 0.00 in0.0 mm 0.00 in0.0 mm 0.00 in0.0 mm
12:45 AM 6.8°F-14.0°C -0.2°F-17.9°C 72% 1.6 mph NNE2.6 kmh NNE 6.9 mph11.1 kmh 30.73 in1040.6 mb 0.00 in0.0 mm 0.00 in0.0 mm 0.00 in0.0 mm
01:00 AM 6.4°F-14.2°C -0.6°F-18.1°C 72% 1.6 mph N2.6 kmh N 5.4 mph8.7 kmh 30.73 in1040.6 mb 0.00 in0.0 mm 0.00 in0.0 mm 0.00 in0.0 mm
01:15 AM 6.1°F-14.4°C -0.6°F-18.1°C 73% 0.7 mph N1.1 kmh N 6.0 mph9.7 kmh 30.73 in1040.6 mb 0.00 in0.0 mm 0.00 in0.0 mm 0.00 in0.0 mm
01:30 AM 5.5°F-14.7°C -0.8°F-18.2°C 74% 2.2 mph N3.5 kmh N 4.5 mph7.2 kmh 30.74 in1041.0 mb 0.00 in0.0 mm 0.00 in0.0 mm 0.00 in0.0 mm
01:45 AM 5.4°F-14.8°C -0.7°F-18.2°C 75% 3.1 mph N5.0 kmh N 4.5 mph7.2 kmh 30.75 in1041.3 mb 0.00 in0.0 mm 0.00 in0.0 mm 0.00 in0.0 mm
02:00 AM 5.2°F-14.9°C -0.9°F-18.3°C 75% 2.2 mph N3.5 kmh N 5.4 mph8.7 kmh 30.74 in1041.0 mb 0.00 in0.0 mm 0.00 in0.0 mm 0.00 in0.0 mm
02:15 AM 5.0°F-15.0°C -0.8°F-18.2°C 76% 0.7 mph NNW1.1 kmh NNW 4.5 mph7.2 kmh 30.75 in1041.3 mb 0.00 in0.0 mm 0.00 in0.0 mm 0.00 in0.0 mm
02:30 AM 4.5°F-15.3°C -1.3°F-18.5°C 76% 0.7 mph NNW1.1 kmh NNW 4.5 mph7.2 kmh 30.76 in1041.7 mb 0.00 in0.0 mm 0.00 in0.0 mm 0.00 in0.0 mm
02:45 AM 4.5°F-15.3°C -1.1°F-18.4°C 77% 3.8 mph N6.1 kmh N 7.6 mph12.2 kmh 30.76 in1041.7 mb 0.00 in0.0 mm 0.00 in0.0 mm 0.00 in0.0 mm
03:00 AM 4.6°F-15.2°C -0.9°F-18.3°C 77% 2.2 mph N3.5 kmh N 5.4 mph8.7 kmh 30.75 in1041.3 mb 0.00 in0.0 mm 0.00 in0.0 mm 0.00 in0.0 mm
03:15 AM 4.5°F-15.3°C -0.8°F-18.2°C 78% 1.6 mph N2.6 kmh N 5.4 mph8.7 kmh 30.75 in1041.3 mb 0.00 in0.0 mm 0.00 in0.0 mm 0.00 in0.0 mm
03:30 AM 4.1°F-15.5°C -1.1°F-18.4°C 78% 2.2 mph NNW3.5 kmh NNW 3.8 mph6.1 kmh 30.76 in1041.7 mb 0.00 in0.0 mm 0.00 in0.0 mm 0.00 in0.0 mm
03:45 AM 3.7°F-15.7°C -1.5°F-18.6°C 78% 1.6 mph N2.6 kmh N 3.8 mph6.1 kmh 30.75 in1041.3 mb 0.00 in0.0 mm 0.00 in0.0 mm 0.00 in0.0 mm
04:00 AM 3.4°F-15.9°C -1.6°F-18.7°C 79% 0.7 mph N1.1 kmh N 4.5 mph7.2 kmh 30.76 in1041.7 mb 0.00 in0.0 mm 0.00 in0.0 mm 0.00 in0.0 mm
04:15 AM 3.2°F-16.0°C -1.7°F-18.7°C 79% 1.6 mph N2.6 kmh N 4.5 mph7.2 kmh 30.75 in1041.3 mb 0.00 in0.0 mm 0.00 in0.0 mm 0.00 in0.0 mm
04:30 AM 3.2°F-16.0°C -1.5°F-18.6°C 80% 1.6 mph N2.6 kmh N 5.4 mph8.7 kmh 30.75 in1041.3 mb 0.00 in0.0 mm 0.00 in0.0 mm 0.00 in0.0 mm
04:45 AM 3.0°F-16.1°C -1.6°F-18.7°C 80% 0.7 mph N1.1 kmh N 2.2 mph3.5 kmh 30.74 in1041.0 mb 0.00 in0.0 mm 0.00 in0.0 mm 0.00 in0.0 mm
05:00 AM 3.2°F-16.0°C -1.2°F-18.4°C 81% 1.6 mph NNE2.6 kmh NNE 4.5 mph7.2 kmh 30.74 in1041.0 mb 0.00 in0.0 mm 0.00 in0.0 mm 0.00 in0.0 mm
05:15 AM 3.2°F-16.0°C -1.2°F-18.4°C 81% 1.6 mph N2.6 kmh N 3.8 mph6.1 kmh 30.73 in1040.6 mb 0.00 in0.0 mm 0.00 in0.0 mm 0.00 in0.0 mm
05:30 AM 3.0°F-16.1°C -1.4°F-18.6°C 81% Calm Calm 3.8 mph6.1 kmh 30.74 in1041.0 mb 0.00 in0.0 mm 0.00 in0.0 mm 0.00 in0.0 mm
05:45 AM 2.7°F-16.3°C -1.7°F-18.7°C 81% Calm Calm 3.8 mph6.1 kmh 30.74 in1041.0 mb 0.00 in0.0 mm 0.00 in0.0 mm 0.00 in0.0 mm
06:00 AM 2.5°F-16.4°C -1.9°F-18.8°C 81% 0.7 mph N1.1 kmh N 3.8 mph6.1 kmh 30.74 in1041.0 mb 0.00 in0.0 mm 0.00 in0.0 mm 0.00 in0.0 mm
06:15 AM 2.5°F-16.4°C -1.6°F-18.7°C 82% 2.2 mph N3.5 kmh N 4.5 mph7.2 kmh 30.73 in1040.6 mb 0.00 in0.0 mm 0.00 in0.0 mm 0.00 in0.0 mm
06:30 AM 2.5°F-16.4°C -1.6°F-18.7°C 82% 2.2 mph N3.5 kmh N 3.8 mph6.1 kmh 30.74 in1041.0 mb 0.00 in0.0 mm 0.00 in0.0 mm 0.00 in0.0 mm
06:45 AM 2.1°F-16.6°C -1.7°F-18.7°C 83% Calm Calm 3.8 mph6.1 kmh 30.74 in1041.0 mb 0.00 in0.0 mm 0.00 in0.0 mm 0.00 in0.0 mm
07:00 AM 1.9°F-16.7°C -1.9°F-18.8°C 83% Calm Calm 3.1 mph5.0 kmh 30.74 in1041.0 mb 0.00 in0.0 mm 0.00 in0.0 mm 0.00 in0.0 mm
07:15 AM 1.8°F-16.8°C -2.1°F-18.9°C 83% 0.7 mph NW1.1 kmh NW 2.2 mph3.5 kmh 30.75 in1041.3 mb 0.00 in0.0 mm 0.00 in0.0 mm 0.00 in0.0 mm
07:30 AM 1.6°F-16.9°C -2.0°F-18.9°C 84% Calm Calm 3.8 mph6.1 kmh 30.75 in1041.3 mb 0.00 in0.0 mm 0.00 in0.0 mm 0.00 in0.0 mm
07:45 AM 1.2°F-17.1°C -2.4°F-19.1°C 84% 0.7 mph NNW1.1 kmh NNW 2.2 mph3.5 kmh 30.75 in1041.3 mb 0.00 in0.0 mm 0.00 in0.0 mm 0.00 in0.0 mm
08:00 AM 1.0°F-17.2°C -2.3°F-19.1°C 85% Calm Calm 3.1 mph5.0 kmh 30.76 in1041.7 mb 0.00 in0.0 mm 0.00 in0.0 mm 0.00 in0.0 mm
08:15 AM 0.9°F-17.3°C -2.5°F-19.2°C 85% Calm Calm 1.6 mph2.6 kmh 30.75 in1041.3 mb 0.00 in0.0 mm 0.00 in0.0 mm 0.00 in0.0 mm
08:30 AM 0.9°F-17.3°C -2.2°F-19.0°C 86% 1.6 mph N2.6 kmh N 3.1 mph5.0 kmh 30.75 in1041.3 mb 0.00 in0.0 mm 0.00 in0.0 mm 0.00 in0.0 mm
08:45 AM 1.8°F-16.8°C -1.4°F-18.6°C 86% 1.6 mph N2.6 kmh N 3.8 mph6.1 kmh 30.75 in1041.3 mb 0.00 in0.0 mm 0.00 in0.0 mm 0.00 in0.0 mm
09:00 AM 3.2°F-16.0°C 0.3°F-17.6°C 87% Calm Calm 3.8 mph6.1 kmh 30.74 in1041.0 mb 0.00 in0.0 mm 0.00 in0.0 mm 0.00 in0.0 mm
09:15 AM 5.0°F-15.0°C 1.8°F-16.8°C 86% 2.2 mph N3.5 kmh N 7.6 mph12.2 kmh 30.74 in1041.0 mb 0.00 in0.0 mm 0.00 in0.0 mm 0.00 in0.0 mm
09:30 AM 6.8°F-14.0°C 3.3°F-15.9°C 85% 3.1 mph ENE5.0 kmh ENE 7.6 mph12.2 kmh 30.74 in1041.0 mb 0.00 in0.0 mm 0.00 in0.0 mm 0.00 in0.0 mm
09:45 AM 8.1°F-13.3°C 4.3°F-15.4°C 84% 1.6 mph NE2.6 kmh NE 5.4 mph8.7 kmh 30.75 in1041.3 mb 0.00 in0.0 mm 0.00 in0.0 mm 0.00 in0.0 mm
10:00 AM 9.3°F-12.6°C 5.0°F-15.0°C 82% 2.2 mph NE3.5 kmh NE 5.4 mph8.7 kmh 30.74 in1041.0 mb 0.00 in0.0 mm 0.00 in0.0 mm 0.00 in0.0 mm
10:15 AM 10.4°F-12.0°C 5.8°F-14.6°C 81% 3.1 mph NE5.0 kmh NE 8.3 mph13.4 kmh 30.74 in1041.0 mb 0.00 in0.0 mm 0.00 in0.0 mm 0.00 in0.0 mm
10:30 AM 10.9°F-11.7°C 5.8°F-14.6°C 79% 1.6 mph NE2.6 kmh NE 6.9 mph11.1 kmh 30.74 in1041.0 mb 0.00 in0.0 mm 0.00 in0.0 mm 0.00 in0.0 mm
10:45 AM 12.2°F-11.0°C 6.7°F-14.1°C 78% 1.6 mph ESE2.6 kmh ESE 6.9 mph11.1 kmh 30.74 in1041.0 mb 0.00 in0.0 mm 0.00 in0.0 mm 0.00 in0.0 mm
11:00 AM 13.5°F-10.3°C 7.7°F-13.5°C 77% 1.6 mph W2.6 kmh W 3.8 mph6.1 kmh 30.74 in1041.0 mb 0.00 in0.0 mm 0.00 in0.0 mm 0.00 in0.0 mm
11:15 AM 14.7°F-9.6°C 8.6°F-13.0°C 76% 1.6 mph WSW2.6 kmh WSW 4.5 mph7.2 kmh 30.74 in1041.0 mb 0.00 in0.0 mm 0.00 in0.0 mm 0.00 in0.0 mm
11:30 AM 15.3°F-9.3°C 8.8°F-12.9°C 75% 1.6 mph N2.6 kmh N 4.5 mph7.2 kmh 30.73 in1040.6 mb 0.00 in0.0 mm 0.00 in0.0 mm 0.00 in0.0 mm
11:45 AM 16.0°F-8.9°C 8.9°F-12.8°C 73% 1.6 mph NNW2.6 kmh NNW 6.0 mph9.7 kmh 30.73 in1040.6 mb 0.00 in0.0 mm 0.00 in0.0 mm 0.00 in0.0 mm
12:00 PM 16.7°F-8.5°C 9.3°F-12.6°C 72% 0.7 mph ESE1.1 kmh ESE 5.4 mph8.7 kmh 30.71 in1040.0 mb 0.00 in0.0 mm 0.00 in0.0 mm 0.00 in0.0 mm
12:15 PM 17.1°F-8.3°C 9.0°F-12.8°C 70% 1.6 mph N2.6 kmh N 6.0 mph9.7 kmh 30.69 in1039.3 mb 0.00 in0.0 mm 0.00 in0.0 mm 0.00 in0.0 mm
12:30 PM 17.8°F-7.9°C 9.7°F-12.4°C 70% 1.6 mph N2.6 kmh N 5.4 mph8.7 kmh 30.69 in1039.3 mb 0.00 in0.0 mm 0.00 in0.0 mm 0.00 in0.0 mm
12:45 PM 19.4°F-7.0°C 10.9°F-11.7°C 69% 2.2 mph W3.5 kmh W 5.4 mph8.7 kmh 30.68 in1038.9 mb 0.00 in0.0 mm 0.00 in0.0 mm 0.00 in0.0 mm
01:00 PM 19.8°F-6.8°C 10.6°F-11.9°C 67% 2.2 mph N3.5 kmh N 5.4 mph8.7 kmh 30.66 in1038.3 mb 0.00 in0.0 mm 0.00 in0.0 mm 0.00 in0.0 mm
01:15 PM 20.8°F-6.2°C 11.7°F-11.3°C 67% 1.6 mph N2.6 kmh N 6.9 mph11.1 kmh 30.66 in1038.3 mb 0.00 in0.0 mm 0.00 in0.0 mm 0.00 in0.0 mm
01:30 PM 21.4°F-5.9°C 11.5°F-11.4°C 65% 1.6 mph WSW2.6 kmh WSW 4.5 mph7.2 kmh 30.64 in1037.6 mb 0.00 in0.0 mm 0.00 in0.0 mm 0.00 in0.0 mm
01:45 PM 22.5°F-5.3°C 12.2°F-11.0°C 64% 2.2 mph NW3.5 kmh NW 8.3 mph13.4 kmh 30.63 in1037.3 mb 0.00 in0.0 mm 0.00 in0.0 mm 0.00 in0.0 mm
02:00 PM 23.2°F-4.9°C 12.5°F-10.8°C 63% 2.2 mph NW3.5 kmh NW 6.9 mph11.1 kmh 30.62 in1036.9 mb 0.00 in0.0 mm 0.00 in0.0 mm 0.00 in0.0 mm
02:15 PM 23.5°F-4.7°C 12.5°F-10.8°C 62% 1.6 mph NNW2.6 kmh NNW 5.4 mph8.7 kmh 30.61 in1036.6 mb 0.00 in0.0 mm 0.00 in0.0 mm 0.00 in0.0 mm
02:30 PM 23.7°F-4.6°C 12.3°F-10.9°C 61% 0.7 mph SSW1.1 kmh SSW 5.4 mph8.7 kmh 30.59 in1035.9 mb 0.00 in0.0 mm 0.00 in0.0 mm 0.00 in0.0 mm
02:45 PM 24.1°F-4.4°C 12.6°F-10.8°C 61% 2.2 mph N3.5 kmh N 6.0 mph9.7 kmh 30.58 in1035.6 mb 0.00 in0.0 mm 0.00 in0.0 mm 0.00 in0.0 mm
03:00 PM 24.4°F-4.2°C 12.6°F-10.8°C 60% Calm Calm 3.8 mph6.1 kmh 30.56 in1034.9 mb 0.00 in0.0 mm 0.00 in0.0 mm 0.00 in0.0 mm
03:15 PM 25.0°F-3.9°C 13.1°F-10.5°C 60% 1.6 mph NNW2.6 kmh NNW 6.9 mph11.1 kmh 30.56 in1034.9 mb 0.00 in0.0 mm 0.00 in0.0 mm 0.00 in0.0 mm
03:30 PM 25.0°F-3.9°C 12.7°F-10.7°C 59% 4.5 mph N7.2 kmh N 6.0 mph9.7 kmh 30.55 in1034.5 mb 0.00 in0.0 mm 0.00 in0.0 mm 0.00 in0.0 mm
03:45 PM 24.8°F-4.0°C 12.2°F-11.0°C 58% 0.7 mph N1.1 kmh N 6.9 mph11.1 kmh 30.54 in1034.2 mb 0.00 in0.0 mm 0.00 in0.0 mm 0.00 in0.0 mm
04:00 PM 25.2°F-3.8°C 12.5°F-10.8°C 58% 0.7 mph NNE1.1 kmh NNE 3.1 mph5.0 kmh 30.53 in1033.9 mb 0.00 in0.0 mm 0.00 in0.0 mm 0.00 in0.0 mm
04:15 PM 25.3°F-3.7°C 12.7°F-10.7°C 58% 1.6 mph N2.6 kmh N 3.8 mph6.1 kmh 30.52 in1033.5 mb 0.00 in0.0 mm 0.00 in0.0 mm 0.00 in0.0 mm
04:30 PM 24.8°F-4.0°C 11.8°F-11.2°C 57% 1.6 mph NW2.6 kmh NW 4.5 mph7.2 kmh 30.52 in1033.5 mb 0.00 in0.0 mm 0.00 in0.0 mm 0.00 in0.0 mm
04:45 PM 24.6°F-4.1°C 12.0°F-11.1°C 58% 1.6 mph N2.6 kmh N 3.8 mph6.1 kmh 30.51 in1033.2 mb 0.00 in0.0 mm 0.00 in0.0 mm 0.00 in0.0 mm
05:00 PM 23.9°F-4.5°C 11.3°F-11.5°C 58% 2.2 mph N3.5 kmh N 3.8 mph6.1 kmh 30.51 in1033.2 mb 0.00 in0.0 mm 0.00 in0.0 mm 0.00 in0.0 mm
05:15 PM 23.7°F-4.6°C 11.2°F-11.6°C 58% 3.1 mph N5.0 kmh N 4.5 mph7.2 kmh 30.51 in1033.2 mb 0.00 in0.0 mm 0.00 in0.0 mm 0.00 in0.0 mm
05:30 PM 22.6°F-5.2°C 10.5°F-11.9°C 59% Calm Calm 2.2 mph3.5 kmh 30.51 in1033.2 mb 0.00 in0.0 mm 0.00 in0.0 mm 0.00 in0.0 mm
05:45 PM 21.4°F-5.9°C 9.7°F-12.4°C 60% Calm Calm 1.6 mph2.6 kmh 30.51 in1033.2 mb 0.00 in0.0 mm 0.00 in0.0 mm 0.00 in0.0 mm
06:00 PM 20.1°F-6.6°C 9.2°F-12.7°C 62% Calm Calm 1.6 mph2.6 kmh 30.51 in1033.2 mb 0.00 in0.0 mm 0.00 in0.0 mm 0.00 in0.0 mm
06:15 PM 18.7°F-7.4°C 8.6°F-13.0°C 64% Calm Calm 0.7 mph1.1 kmh 30.50 in1032.8 mb 0.00 in0.0 mm 0.00 in0.0 mm 0.00 in0.0 mm
06:30 PM 17.6°F-8.0°C 7.9°F-13.4°C 65% Calm Calm 0.7 mph1.1 kmh 30.50 in1032.8 mb 0.00 in0.0 mm 0.00 in0.0 mm 0.00 in0.0 mm
06:45 PM 16.7°F-8.5°C 7.7°F-13.5°C 67% Calm Calm 0.7 mph1.1 kmh 30.49 in1032.5 mb 0.00 in0.0 mm 0.00 in0.0 mm 0.00 in0.0 mm
07:00 PM 15.6°F-9.1°C 7.3°F-13.7°C 69% Calm Calm 0.7 mph1.1 kmh 30.49 in1032.5 mb 0.00 in0.0 mm 0.00 in0.0 mm 0.00 in0.0 mm
07:15 PM 14.9°F-9.5°C 7.3°F-13.7°C 71% Calm Calm 0.7 mph1.1 kmh 30.49 in1032.5 mb 0.00 in0.0 mm 0.00 in0.0 mm 0.00 in0.0 mm
07:30 PM 14.4°F-9.8°C 7.1°F-13.8°C 72% Calm Calm 0.7 mph1.1 kmh 30.48 in1032.2 mb 0.00 in0.0 mm 0.00 in0.0 mm 0.00 in0.0 mm
07:45 PM 14.0°F-10.0°C 7.0°F-13.9°C 73% Calm Calm 0.7 mph1.1 kmh 30.48 in1032.2 mb 0.00 in0.0 mm 0.00 in0.0 mm 0.00 in0.0 mm
08:00 PM 13.5°F-10.3°C 6.8°F-14.0°C 74% Calm Calm 1.6 mph2.6 kmh 30.47 in1031.8 mb 0.00 in0.0 mm 0.00 in0.0 mm 0.00 in0.0 mm
08:15 PM 12.7°F-10.7°C 6.1°F-14.4°C 74% Calm Calm 0.7 mph1.1 kmh 30.46 in1031.5 mb 0.00 in0.0 mm 0.00 in0.0 mm 0.00 in0.0 mm
08:30 PM 11.8°F-11.2°C 5.5°F-14.7°C 75% Calm Calm -- 30.45 in1031.2 mb 0.00 in0.0 mm 0.00 in0.0 mm 0.00 in0.0 mm
08:45 PM 11.3°F-11.5°C 5.3°F-14.8°C 76% Calm Calm -- 30.45 in1031.2 mb 0.00 in0.0 mm 0.00 in0.0 mm 0.00 in0.0 mm
09:00 PM 10.9°F-11.7°C 5.2°F-14.9°C 77% Calm Calm 0.7 mph1.1 kmh 30.45 in1031.2 mb 0.00 in0.0 mm 0.00 in0.0 mm 0.00 in0.0 mm
09:15 PM 10.9°F-11.7°C 5.5°F-14.7°C 78% Calm Calm -- 30.45 in1031.2 mb 0.00 in0.0 mm 0.00 in0.0 mm 0.00 in0.0 mm
09:30 PM 11.1°F-11.6°C 6.0°F-14.4°C 79% Calm Calm -- 30.44 in1030.8 mb 0.00 in0.0 mm 0.00 in0.0 mm 0.00 in0.0 mm
09:45 PM 11.1°F-11.6°C 6.2°F-14.3°C 80% Calm Calm -- 30.44 in1030.8 mb 0.00 in0.0 mm 0.00 in0.0 mm 0.00 in0.0 mm
10:00 PM 11.3°F-11.5°C 6.7°F-14.1°C 81% Calm Calm 1.6 mph2.6 kmh 30.43 in1030.5 mb 0.00 in0.0 mm 0.00 in0.0 mm 0.00 in0.0 mm
10:15 PM 11.1°F-11.6°C 6.5°F-14.2°C 81% Calm Calm 0.7 mph1.1 kmh 30.43 in1030.5 mb 0.00 in0.0 mm 0.00 in0.0 mm 0.00 in0.0 mm
10:30 PM 10.9°F-11.7°C 6.3°F-14.3°C 81% Calm Calm -- 30.42 in1030.1 mb 0.00 in0.0 mm 0.00 in0.0 mm 0.00 in0.0 mm
10:45 PM 11.1°F-11.6°C 6.8°F-14.0°C 82% Calm Calm -- 30.42 in1030.1 mb 0.00 in0.0 mm 0.00 in0.0 mm 0.00 in0.0 mm
11:00 PM 11.3°F-11.5°C 7.2°F-13.8°C 83% Calm Calm 0.7 mph1.1 kmh 30.41 in1029.8 mb 0.00 in0.0 mm 0.00 in0.0 mm 0.00 in0.0 mm
11:15 PM 11.7°F-11.3°C 7.3°F-13.7°C 82% Calm Calm 0.7 mph1.1 kmh 30.41 in1029.8 mb 0.00 in0.0 mm 0.00 in0.0 mm 0.00 in0.0 mm
11:30 PM 11.5°F-11.4°C 7.1°F-13.8°C 82% Calm Calm 0.7 mph1.1 kmh 30.40 in1029.5 mb 0.00 in0.0 mm 0.00 in0.0 mm 0.00 in0.0 mm
11:45 PM 11.3°F-11.5°C 7.2°F-13.8°C 83% 1.6 mph S2.6 kmh S 2.2 mph3.5 kmh 30.39 in1029.1 mb 0.00 in0.0 mm 0.00 in0.0 mm 0.00 in0.0 mm